sensor_id;sensor_type;location;lat;lon;timestamp;temperature;humidity
47482;DHT22;33219;47.410;9.730;2022-10-03T00:00:20;12.30;99.90
47482;DHT22;33219;47.410;9.730;2022-10-03T00:11:15;12.20;99.90
47482;DHT22;33219;47.410;9.730;2022-10-03T00:13:57;12.20;99.90
47482;DHT22;33219;47.410;9.730;2022-10-03T00:19:34;12.20;99.90
47482;DHT22;33219;47.410;9.730;2022-10-03T00:30:03;12.10;99.90
47482;DHT22;33219;47.410;9.730;2022-10-03T00:46:43;11.90;99.90
47482;DHT22;33219;47.410;9.730;2022-10-03T00:49:29;11.80;99.90
47482;DHT22;33219;47.410;9.730;2022-10-03T00:54:45;11.80;99.90
47482;DHT22;33219;47.410;9.730;2022-10-03T00:57:29;11.80;99.90
47482;DHT22;33219;47.410;9.730;2022-10-03T01:00:21;11.90;99.90
47482;DHT22;33219;47.410;9.730;2022-10-03T01:14:17;12.00;99.90
47482;DHT22;33219;47.410;9.730;2022-10-03T01:17:04;12.00;99.90
47482;DHT22;33219;47.410;9.730;2022-10-03T01:22:47;12.00;99.90
47482;DHT22;33219;47.410;9.730;2022-10-03T01:30:59;12.10;99.90
47482;DHT22;33219;47.410;9.730;2022-10-03T01:33:29;12.10;99.90
47482;DHT22;33219;47.410;9.730;2022-10-03T01:36:11;12.00;99.90
47482;DHT22;33219;47.410;9.730;2022-10-03T01:38:55;12.00;99.90
47482;DHT22;33219;47.410;9.730;2022-10-03T01:41:58;12.10;99.90
47482;DHT22;33219;47.410;9.730;2022-10-03T01:47:30;12.10;99.90
47482;DHT22;33219;47.410;9.730;2022-10-03T01:50:10;12.10;99.90
47482;DHT22;33219;47.410;9.730;2022-10-03T01:53:02;12.00;99.90
47482;DHT22;33219;47.410;9.730;2022-10-03T01:55:49;12.10;99.90
47482;DHT22;33219;47.410;9.730;2022-10-03T02:01:21;12.00;99.90
47482;DHT22;33219;47.410;9.730;2022-10-03T02:03:54;12.10;99.90
47482;DHT22;33219;47.410;9.730;2022-10-03T02:06:39;12.10;99.90
47482;DHT22;33219;47.410;9.730;2022-10-03T02:22:42;12.10;99.90
47482;DHT22;33219;47.410;9.730;2022-10-03T02:29:05;12.10;99.90
47482;DHT22;33219;47.410;9.730;2022-10-03T02:33:35;12.10;99.90
47482;DHT22;33219;47.410;9.730;2022-10-03T02:47:00;12.10;99.90
47482;DHT22;33219;47.410;9.730;2022-10-03T02:54:54;11.80;99.90
47482;DHT22;33219;47.410;9.730;2022-10-03T02:57:47;11.80;99.90
47482;DHT22;33219;47.410;9.730;2022-10-03T03:06:11;11.70;99.90
47482;DHT22;33219;47.410;9.730;2022-10-03T03:14:51;11.70;99.90
47482;DHT22;33219;47.410;9.730;2022-10-03T03:17:34;11.60;99.90
47482;DHT22;33219;47.410;9.730;2022-10-03T03:20:10;11.60;99.90
47482;DHT22;33219;47.410;9.730;2022-10-03T03:31:03;11.50;99.90
47482;DHT22;33219;47.410;9.730;2022-10-03T03:33:49;11.60;99.90
47482;DHT22;33219;47.410;9.730;2022-10-03T03:36:22;11.60;99.90
47482;DHT22;33219;47.410;9.730;2022-10-03T03:56:16;11.50;99.90
47482;DHT22;33219;47.410;9.730;2022-10-03T04:14:59;11.40;99.90
47482;DHT22;33219;47.410;9.730;2022-10-03T04:20:56;11.40;99.90
47482;DHT22;33219;47.410;9.730;2022-10-03T04:26:31;11.40;99.90
47482;DHT22;33219;47.410;9.730;2022-10-03T04:34:31;11.40;99.90
47482;DHT22;33219;47.410;9.730;2022-10-03T04:37:31;11.40;99.90
47482;DHT22;33219;47.410;9.730;2022-10-03T04:40:00;11.40;99.90
47482;DHT22;33219;47.410;9.730;2022-10-03T04:55:53;11.40;99.90
47482;DHT22;33219;47.410;9.730;2022-10-03T04:58:38;11.40;99.90
47482;DHT22;33219;47.410;9.730;2022-10-03T05:01:24;11.40;99.90
47482;DHT22;33219;47.410;9.730;2022-10-03T05:07:03;11.40;99.90
47482;DHT22;33219;47.410;9.730;2022-10-03T05:09:52;11.30;99.90
47482;DHT22;33219;47.410;9.730;2022-10-03T05:17:57;11.20;99.90
47482;DHT22;33219;47.410;9.730;2022-10-03T05:23:06;11.10;99.90
47482;DHT22;33219;47.410;9.730;2022-10-03T05:25:41;11.10;99.90
47482;DHT22;33219;47.410;9.730;2022-10-03T05:31:22;11.00;99.90
47482;DHT22;33219;47.410;9.730;2022-10-03T05:33:53;11.00;99.90
47482;DHT22;33219;47.410;9.730;2022-10-03T05:42:03;11.00;99.90
47482;DHT22;33219;47.410;9.730;2022-10-03T05:47:47;11.00;99.90
47482;DHT22;33219;47.410;9.730;2022-10-03T06:05:14;11.40;99.90
47482;DHT22;33219;47.410;9.730;2022-10-03T06:07:56;11.50;99.90
47482;DHT22;33219;47.410;9.730;2022-10-03T06:40:40;12.30;99.90
47482;DHT22;33219;47.410;9.730;2022-10-03T06:49:13;12.70;99.90
47482;DHT22;33219;47.410;9.730;2022-10-03T06:51:59;12.80;99.90
47482;DHT22;33219;47.410;9.730;2022-10-03T07:57:15;14.10;99.90
47482;DHT22;33219;47.410;9.730;2022-10-03T09:44:43;17.20;99.90
47482;DHT22;33219;47.410;9.730;2022-10-03T09:54:01;17.50;99.90
47482;DHT22;33219;47.410;9.730;2022-10-03T09:56:39;17.30;99.90
47482;DHT22;33219;47.410;9.730;2022-10-03T10:08:03;16.70;99.90
47482;DHT22;33219;47.410;9.730;2022-10-03T10:23:03;17.20;99.90
47482;DHT22;33219;47.410;9.730;2022-10-03T10:54:13;17.30;99.90
47482;DHT22;33219;47.410;9.730;2022-10-03T11:45:14;17.20;99.90
47482;DHT22;33219;47.410;9.730;2022-10-03T11:53:42;18.00;99.90
47482;DHT22;33219;47.410;9.730;2022-10-03T11:56:29;18.10;99.90
47482;DHT22;33219;47.410;9.730;2022-10-03T12:01:59;18.00;99.90
47482;DHT22;33219;47.410;9.730;2022-10-03T12:10:46;17.90;99.90
47482;DHT22;33219;47.410;9.730;2022-10-03T12:17:20;17.90;99.90
47482;DHT22;33219;47.410;9.730;2022-10-03T12:26:13;17.10;99.90
47482;DHT22;33219;47.410;9.730;2022-10-03T12:35:00;17.40;99.90
47482;DHT22;33219;47.410;9.730;2022-10-03T13:09:02;18.50;99.70
47482;DHT22;33219;47.410;9.730;2022-10-03T13:31:02;18.30;99.60
47482;DHT22;33219;47.410;9.730;2022-10-03T13:33:43;18.20;99.80
47482;DHT22;33219;47.410;9.730;2022-10-03T13:36:22;18.00;99.40
47482;DHT22;33219;47.410;9.730;2022-10-03T13:44:30;17.40;99.90
47482;DHT22;33219;47.410;9.730;2022-10-03T13:50:02;17.20;99.90
47482;DHT22;33219;47.410;9.730;2022-10-03T13:52:51;17.20;99.90
47482;DHT22;33219;47.410;9.730;2022-10-03T13:55:54;17.10;99.90
47482;DHT22;33219;47.410;9.730;2022-10-03T14:01:23;17.10;99.90
47482;DHT22;33219;47.410;9.730;2022-10-03T14:07:14;17.30;99.90
47482;DHT22;33219;47.410;9.730;2022-10-03T14:12:53;17.20;99.90
47482;DHT22;33219;47.410;9.730;2022-10-03T14:15:54;17.00;99.90
47482;DHT22;33219;47.410;9.730;2022-10-03T14:27:18;16.60;99.90
47482;DHT22;33219;47.410;9.730;2022-10-03T14:41:02;16.60;99.90
47482;DHT22;33219;47.410;9.730;2022-10-03T14:43:37;16.60;99.90
47482;DHT22;33219;47.410;9.730;2022-10-03T14:46:04;16.60;99.90
47482;DHT22;33219;47.410;9.730;2022-10-03T14:48:39;16.60;99.90
47482;DHT22;33219;47.410;9.730;2022-10-03T14:51:21;16.50;99.90
47482;DHT22;33219;47.410;9.730;2022-10-03T14:53:57;16.40;99.90
47482;DHT22;33219;47.410;9.730;2022-10-03T14:56:30;16.30;99.90
47482;DHT22;33219;47.410;9.730;2022-10-03T14:59:00;16.20;99.90
47482;DHT22;33219;47.410;9.730;2022-10-03T15:01:28;16.00;99.90
47482;DHT22;33219;47.410;9.730;2022-10-03T15:04:11;15.90;99.90
47482;DHT22;33219;47.410;9.730;2022-10-03T15:12:25;15.70;99.90
47482;DHT22;33219;47.410;9.730;2022-10-03T15:15:02;15.70;99.90
47482;DHT22;33219;47.410;9.730;2022-10-03T15:17:26;15.60;99.90
47482;DHT22;33219;47.410;9.730;2022-10-03T15:19:57;15.50;99.90
47482;DHT22;33219;47.410;9.730;2022-10-03T15:22:36;15.50;99.90
47482;DHT22;33219;47.410;9.730;2022-10-03T15:25:21;15.60;99.90
47482;DHT22;33219;47.410;9.730;2022-10-03T15:27:55;15.50;99.90
47482;DHT22;33219;47.410;9.730;2022-10-03T15:30:25;15.50;99.90
47482;DHT22;33219;47.410;9.730;2022-10-03T15:32:54;15.40;99.90
47482;DHT22;33219;47.410;9.730;2022-10-03T15:35:27;15.40;99.90
47482;DHT22;33219;47.410;9.730;2022-10-03T15:37:57;15.40;99.90
47482;DHT22;33219;47.410;9.730;2022-10-03T15:40:34;15.40;99.90
47482;DHT22;33219;47.410;9.730;2022-10-03T15:43:25;15.30;99.90
47482;DHT22;33219;47.410;9.730;2022-10-03T15:45:54;15.40;99.90
47482;DHT22;33219;47.410;9.730;2022-10-03T15:48:23;15.40;99.90
47482;DHT22;33219;47.410;9.730;2022-10-03T15:50:53;15.40;99.90
47482;DHT22;33219;47.410;9.730;2022-10-03T15:53:31;15.40;99.90
47482;DHT22;33219;47.410;9.730;2022-10-03T15:56:20;15.40;99.90
47482;DHT22;33219;47.410;9.730;2022-10-03T15:58:50;15.40;99.90
47482;DHT22;33219;47.410;9.730;2022-10-03T16:01:36;15.50;99.90
47482;DHT22;33219;47.410;9.730;2022-10-03T16:04:29;15.40;99.90
47482;DHT22;33219;47.410;9.730;2022-10-03T16:07:07;15.40;99.90
47482;DHT22;33219;47.410;9.730;2022-10-03T16:10:00;15.50;99.90
47482;DHT22;33219;47.410;9.730;2022-10-03T16:12:56;15.40;99.90
47482;DHT22;33219;47.410;9.730;2022-10-03T16:15:32;15.40;99.90
47482;DHT22;33219;47.410;9.730;2022-10-03T16:21:06;15.30;99.90
47482;DHT22;33219;47.410;9.730;2022-10-03T16:23:39;15.30;99.90
47482;DHT22;33219;47.410;9.730;2022-10-03T16:26:23;15.40;99.90
47482;DHT22;33219;47.410;9.730;2022-10-03T16:32:06;15.30;99.90
47482;DHT22;33219;47.410;9.730;2022-10-03T16:34:32;15.20;99.90
47482;DHT22;33219;47.410;9.730;2022-10-03T16:37:02;15.20;99.90
47482;DHT22;33219;47.410;9.730;2022-10-03T16:39:34;15.20;99.90
47482;DHT22;33219;47.410;9.730;2022-10-03T16:42:19;15.00;99.90
47482;DHT22;33219;47.410;9.730;2022-10-03T16:47:16;15.00;99.90
47482;DHT22;33219;47.410;9.730;2022-10-03T16:49:54;15.00;99.90
47482;DHT22;33219;47.410;9.730;2022-10-03T16:52:39;14.90;99.90
47482;DHT22;33219;47.410;9.730;2022-10-03T16:55:33;14.80;99.90
47482;DHT22;33219;47.410;9.730;2022-10-03T16:58:09;14.80;99.90
47482;DHT22;33219;47.410;9.730;2022-10-03T17:00:51;14.80;99.90
47482;DHT22;33219;47.410;9.730;2022-10-03T17:03:27;14.80;99.90
47482;DHT22;33219;47.410;9.730;2022-10-03T17:05:52;14.80;99.90
47482;DHT22;33219;47.410;9.730;2022-10-03T17:08:22;14.70;99.90
47482;DHT22;33219;47.410;9.730;2022-10-03T17:10:53;14.70;99.90
47482;DHT22;33219;47.410;9.730;2022-10-03T17:13:26;14.70;99.90
47482;DHT22;33219;47.410;9.730;2022-10-03T17:16:01;14.70;99.90
47482;DHT22;33219;47.410;9.730;2022-10-03T17:18:34;14.60;99.90
47482;DHT22;33219;47.410;9.730;2022-10-03T17:24:02;14.60;99.90
47482;DHT22;33219;47.410;9.730;2022-10-03T17:26:37;14.50;99.90
47482;DHT22;33219;47.410;9.730;2022-10-03T17:29:40;14.50;99.90
47482;DHT22;33219;47.410;9.730;2022-10-03T17:32:01;14.50;99.90
47482;DHT22;33219;47.410;9.730;2022-10-03T17:34:37;14.40;99.90
47482;DHT22;33219;47.410;9.730;2022-10-03T17:37:33;14.40;99.90
47482;DHT22;33219;47.410;9.730;2022-10-03T17:40:03;14.30;99.90
47482;DHT22;33219;47.410;9.730;2022-10-03T17:47:51;14.20;99.90
47482;DHT22;33219;47.410;9.730;2022-10-03T17:50:50;14.20;99.90
47482;DHT22;33219;47.410;9.730;2022-10-03T17:53:28;14.20;99.90
47482;DHT22;33219;47.410;9.730;2022-10-03T17:56:26;14.20;99.90
47482;DHT22;33219;47.410;9.730;2022-10-03T17:58:28;14.10;99.90
47482;DHT22;33219;47.410;9.730;2022-10-03T18:03:54;14.10;99.90
47482;DHT22;33219;47.410;9.730;2022-10-03T18:06:56;14.10;99.90
47482;DHT22;33219;47.410;9.730;2022-10-03T18:09:33;14.10;99.90
47482;DHT22;33219;47.410;9.730;2022-10-03T18:14:45;14.00;99.90
47482;DHT22;33219;47.410;9.730;2022-10-03T18:17:18;14.00;99.90
47482;DHT22;33219;47.410;9.730;2022-10-03T18:20:09;14.00;99.90
47482;DHT22;33219;47.410;9.730;2022-10-03T18:22:42;14.00;99.90
47482;DHT22;33219;47.410;9.730;2022-10-03T18:28:14;13.90;99.90
47482;DHT22;33219;47.410;9.730;2022-10-03T18:30:55;13.90;99.90
47482;DHT22;33219;47.410;9.730;2022-10-03T18:33:28;13.90;99.90
47482;DHT22;33219;47.410;9.730;2022-10-03T18:36:00;13.90;99.90
47482;DHT22;33219;47.410;9.730;2022-10-03T18:38:30;13.90;99.90
47482;DHT22;33219;47.410;9.730;2022-10-03T18:41:00;13.80;99.90
47482;DHT22;33219;47.410;9.730;2022-10-03T18:43:35;13.80;99.90
47482;DHT22;33219;47.410;9.730;2022-10-03T18:48:41;13.70;99.90
47482;DHT22;33219;47.410;9.730;2022-10-03T18:51:14;13.70;99.90
47482;DHT22;33219;47.410;9.730;2022-10-03T18:53:50;13.60;99.90
47482;DHT22;33219;47.410;9.730;2022-10-03T18:56:23;13.60;99.90
47482;DHT22;33219;47.410;9.730;2022-10-03T19:01:40;13.50;99.90
47482;DHT22;33219;47.410;9.730;2022-10-03T19:04:10;13.60;99.90
47482;DHT22;33219;47.410;9.730;2022-10-03T19:06:49;13.50;99.90
47482;DHT22;33219;47.410;9.730;2022-10-03T19:09:26;13.50;99.90
47482;DHT22;33219;47.410;9.730;2022-10-03T19:12:17;13.50;99.90
47482;DHT22;33219;47.410;9.730;2022-10-03T19:15:16;13.50;99.90
47482;DHT22;33219;47.410;9.730;2022-10-03T19:18:36;13.50;99.90
47482;DHT22;33219;47.410;9.730;2022-10-03T19:20:26;13.40;99.90
47482;DHT22;33219;47.410;9.730;2022-10-03T19:23:02;13.40;99.90
47482;DHT22;33219;47.410;9.730;2022-10-03T19:25:26;13.40;99.90
47482;DHT22;33219;47.410;9.730;2022-10-03T19:28:06;13.40;99.90
47482;DHT22;33219;47.410;9.730;2022-10-03T19:30:35;13.40;99.90
47482;DHT22;33219;47.410;9.730;2022-10-03T19:33:05;13.40;99.90
47482;DHT22;33219;47.410;9.730;2022-10-03T19:35:37;13.40;99.90
47482;DHT22;33219;47.410;9.730;2022-10-03T19:38:11;13.40;99.90
47482;DHT22;33219;47.410;9.730;2022-10-03T19:51:47;13.40;99.90
47482;DHT22;33219;47.410;9.730;2022-10-03T19:54:43;13.40;99.90
47482;DHT22;33219;47.410;9.730;2022-10-03T19:57:02;13.40;99.90
47482;DHT22;33219;47.410;9.730;2022-10-03T19:59:44;13.40;99.90
47482;DHT22;33219;47.410;9.730;2022-10-03T20:02:12;13.40;99.90
47482;DHT22;33219;47.410;9.730;2022-10-03T20:04:40;13.40;99.90
47482;DHT22;33219;47.410;9.730;2022-10-03T20:07:15;13.40;99.90
47482;DHT22;33219;47.410;9.730;2022-10-03T20:09:59;13.40;99.90
47482;DHT22;33219;47.410;9.730;2022-10-03T20:12:27;13.30;99.90
47482;DHT22;33219;47.410;9.730;2022-10-03T20:14:59;13.40;99.90
47482;DHT22;33219;47.410;9.730;2022-10-03T20:17:27;13.30;99.90
47482;DHT22;33219;47.410;9.730;2022-10-03T20:19:56;13.30;99.90
47482;DHT22;33219;47.410;9.730;2022-10-03T20:22:28;13.30;99.90
47482;DHT22;33219;47.410;9.730;2022-10-03T20:24:57;13.30;99.90
47482;DHT22;33219;47.410;9.730;2022-10-03T20:27:44;13.30;99.90
47482;DHT22;33219;47.410;9.730;2022-10-03T20:30:26;13.20;99.90
47482;DHT22;33219;47.410;9.730;2022-10-03T20:32:55;13.20;99.90
47482;DHT22;33219;47.410;9.730;2022-10-03T20:35:35;13.20;99.90
47482;DHT22;33219;47.410;9.730;2022-10-03T20:38:09;13.20;99.90
47482;DHT22;33219;47.410;9.730;2022-10-03T20:40:36;13.10;99.90
47482;DHT22;33219;47.410;9.730;2022-10-03T20:43:43;13.10;99.90
47482;DHT22;33219;47.410;9.730;2022-10-03T20:46:21;13.10;99.90
47482;DHT22;33219;47.410;9.730;2022-10-03T20:49:40;13.00;99.90
47482;DHT22;33219;47.410;9.730;2022-10-03T20:51:39;13.00;99.90
47482;DHT22;33219;47.410;9.730;2022-10-03T20:54:16;13.00;99.90
47482;DHT22;33219;47.410;9.730;2022-10-03T20:56:52;13.00;99.90
47482;DHT22;33219;47.410;9.730;2022-10-03T20:59:25;13.00;99.90
47482;DHT22;33219;47.410;9.730;2022-10-03T21:01:58;13.00;99.90
47482;DHT22;33219;47.410;9.730;2022-10-03T21:04:37;13.00;99.90
47482;DHT22;33219;47.410;9.730;2022-10-03T21:07:47;13.00;99.90
47482;DHT22;33219;47.410;9.730;2022-10-03T21:09:48;13.00;99.90
47482;DHT22;33219;47.410;9.730;2022-10-03T21:12:23;13.00;99.90
47482;DHT22;33219;47.410;9.730;2022-10-03T21:14:59;13.00;99.90
47482;DHT22;33219;47.410;9.730;2022-10-03T21:17:25;13.00;99.90
47482;DHT22;33219;47.410;9.730;2022-10-03T21:19:58;12.90;99.90
47482;DHT22;33219;47.410;9.730;2022-10-03T21:22:27;13.00;99.90
47482;DHT22;33219;47.410;9.730;2022-10-03T21:25:04;13.00;99.90
47482;DHT22;33219;47.410;9.730;2022-10-03T21:27:30;13.00;99.90
47482;DHT22;33219;47.410;9.730;2022-10-03T21:30:16;13.00;99.90
47482;DHT22;33219;47.410;9.730;2022-10-03T21:33:04;13.00;99.90
47482;DHT22;33219;47.410;9.730;2022-10-03T21:35:36;12.90;99.90
47482;DHT22;33219;47.410;9.730;2022-10-03T21:46:33;12.90;99.90
47482;DHT22;33219;47.410;9.730;2022-10-03T21:58:01;13.00;99.90
47482;DHT22;33219;47.410;9.730;2022-10-03T22:00:43;13.00;99.90
47482;DHT22;33219;47.410;9.730;2022-10-03T22:03:07;13.00;99.90
47482;DHT22;33219;47.410;9.730;2022-10-03T22:05:59;13.00;99.90
47482;DHT22;33219;47.410;9.730;2022-10-03T22:08:27;13.00;99.90
47482;DHT22;33219;47.410;9.730;2022-10-03T22:11:01;13.00;99.90
47482;DHT22;33219;47.410;9.730;2022-10-03T22:13:29;13.00;99.90
47482;DHT22;33219;47.410;9.730;2022-10-03T22:16:08;13.00;99.90
47482;DHT22;33219;47.410;9.730;2022-10-03T22:21:12;12.90;99.90
47482;DHT22;33219;47.410;9.730;2022-10-03T22:26:33;12.90;99.90
47482;DHT22;33219;47.410;9.730;2022-10-03T22:29:27;12.90;99.90
47482;DHT22;33219;47.410;9.730;2022-10-03T22:37:11;12.80;99.90
47482;DHT22;33219;47.410;9.730;2022-10-03T22:39:38;12.80;99.90
47482;DHT22;33219;47.410;9.730;2022-10-03T22:42:06;12.70;99.90
47482;DHT22;33219;47.410;9.730;2022-10-03T22:44:35;12.60;99.90
47482;DHT22;33219;47.410;9.730;2022-10-03T22:47:06;12.60;99.90
47482;DHT22;33219;47.410;9.730;2022-10-03T22:49:40;12.50;99.90
47482;DHT22;33219;47.410;9.730;2022-10-03T22:52:12;12.40;99.90
47482;DHT22;33219;47.410;9.730;2022-10-03T22:54:40;12.30;99.90
47482;DHT22;33219;47.410;9.730;2022-10-03T22:57:12;12.20;99.90
47482;DHT22;33219;47.410;9.730;2022-10-03T22:59:46;11.70;99.90
47482;DHT22;33219;47.410;9.730;2022-10-03T23:02:15;12.10;99.90
47482;DHT22;33219;47.410;9.730;2022-10-03T23:04:53;12.00;99.90
47482;DHT22;33219;47.410;9.730;2022-10-03T23:13:12;11.80;99.90
47482;DHT22;33219;47.410;9.730;2022-10-03T23:15:40;11.70;99.90
47482;DHT22;33219;47.410;9.730;2022-10-03T23:29:17;11.40;99.90
47482;DHT22;33219;47.410;9.730;2022-10-03T23:31:56;11.50;99.90
47482;DHT22;33219;47.410;9.730;2022-10-03T23:47:41;10.70;99.90
47482;DHT22;33219;47.410;9.730;2022-10-03T23:50:12;10.60;99.90
47482;DHT22;33219;47.410;9.730;2022-10-03T23:52:43;10.50;99.90
47482;DHT22;33219;47.410;9.730;2022-10-03T23:55:14;10.40;99.90
47482;DHT22;33219;47.410;9.730;2022-10-03T23:57:41;10.30;99.90
